Time;durP1;ratioP1;P1;durP2;ratioP2;P2;SDS_P1;SDS_P2;PMS_P1;PMS_P2;Temp;Humidity;BMP_temperature;BMP_pressure;BME280_temperature;BME280_humidity;BME280_pressure;Samples;Min_cycle;Max_cycle;Signal;HPM_P1;HPM_P2
2022/11/28 00:01:05;;;;;;;15.27;11.80;;;6.20;99.90;;;;;;4948097;28;20863;-75
2022/11/28 00:03:31;;;;;;;15.50;12.07;;;6.10;99.90;;;;;;4945883;28;20777;-75
2022/11/28 00:06:01;;;;;;;15.40;11.43;;;6.10;99.90;;;;;;4947650;29;20423;-77
2022/11/28 00:08:26;;;;;;;14.25;11.50;;;6.10;99.90;;;;;;4927374;29;20400;-77
2022/11/28 00:10:52;;;;;;;13.17;11.20;;;6.10;99.90;;;;;;4928477;29;20443;-76
2022/11/28 00:13:18;;;;;;;15.93;12.37;;;6.40;99.90;;;;;;4928358;29;20466;-77
2022/11/28 00:15:43;;;;;;;12.43;10.53;;;6.20;99.90;;;;;;4928684;29;20487;-75
2022/11/28 00:18:10;;;;;;;13.70;10.60;;;6.20;99.90;;;;;;4928509;29;20474;-76
2022/11/28 00:20:35;;;;;;;12.20;9.95;;;6.40;99.90;;;;;;4928144;29;20415;-76
2022/11/28 00:23:01;;;;;;;13.82;10.40;;;6.00;99.90;;;;;;4927584;29;20422;-76
2022/11/28 00:25:27;;;;;;;13.52;10.75;;;6.40;99.90;;;;;;4928059;29;20529;-77
2022/11/28 00:27:52;;;;;;;12.95;11.10;;;6.30;99.90;;;;;;4933038;29;20460;-75
2022/11/28 00:30:18;;;;;;;14.27;10.38;;;6.40;99.90;;;;;;4946460;29;20905;-76
2022/11/28 00:32:43;;;;;;;13.77;11.02;;;6.30;99.90;;;;;;4945811;29;20437;-78
2022/11/28 00:35:09;;;;;;;13.27;10.85;;;6.00;99.90;;;;;;4949007;28;20426;-76
2022/11/28 00:37:35;;;;;;;13.20;10.93;;;6.20;99.90;;;;;;4952383;28;20417;-76
2022/11/28 00:40:00;;;;;;;11.60;10.30;;;6.30;99.90;;;;;;4953273;29;20449;-74
2022/11/28 00:42:26;;;;;;;13.97;10.53;;;5.90;99.90;;;;;;4953026;28;20758;-78
2022/11/28 00:44:51;;;;;;;15.07;11.03;;;6.20;99.90;;;;;;4953245;28;20417;-76
2022/11/28 00:47:17;;;;;;;16.97;10.97;;;6.00;99.90;;;;;;4951961;29;20413;-80
2022/11/28 00:49:43;;;;;;;14.50;11.53;;;6.30;99.90;;;;;;4953502;29;20444;-75
2022/11/28 00:52:08;;;;;;;14.50;11.20;;;5.90;99.90;;;;;;4953030;28;20500;-76
2022/11/28 00:54:34;;;;;;;13.90;10.73;;;6.10;99.90;;;;;;4952541;29;20433;-75
2022/11/28 00:57:00;;;;;;;15.70;11.07;;;5.90;99.90;;;;;;4953865;29;20662;-78
2022/11/28 00:59:25;;;;;;;14.07;10.43;;;6.30;99.90;;;;;;4952559;28;20916;-76
2022/11/28 01:01:51;;;;;;;13.93;10.40;;;6.20;99.90;;;;;;4953494;28;20440;-75
2022/11/28 01:04:16;;;;;;;12.67;10.23;;;6.10;99.90;;;;;;4953711;28;20421;-78
2022/11/28 01:06:47;;;;;;;14.77;11.10;;;6.20;99.90;;;;;;4952984;29;20836;-76
2022/11/28 01:09:21;;;;;;;14.15;10.88;;;6.40;99.90;;;;;;4952930;29;20438;-76
2022/11/28 01:11:49;;;;;;;18.07;12.27;;;6.00;99.90;;;;;;4954127;29;20781;-76
2022/11/28 01:14:17;;;;;;;15.23;11.17;;;6.20;99.90;;;;;;4953701;28;20813;-75
2022/11/28 01:16:43;;;;;;;14.45;11.27;;;6.20;99.90;;;;;;4953662;28;20402;-75
2022/11/28 01:19:09;;;;;;;13.07;11.07;;;6.10;99.90;;;;;;4953063;28;20429;-75
2022/11/28 01:21:35;;;;;;;13.27;11.23;;;6.20;99.90;;;;;;4935984;29;20448;-77
2022/11/28 01:24:00;;;;;;;18.83;12.48;;;6.10;99.90;;;;;;4935013;29;20939;-77
2022/11/28 01:26:29;;;;;;;18.05;12.23;;;6.10;99.90;;;;;;4952770;28;20470;-75
2022/11/28 01:28:55;;;;;;;14.40;11.55;;;6.30;99.90;;;;;;4952683;28;20612;-76
2022/11/28 01:31:24;;;;;;;18.27;13.93;;;6.00;99.90;;;;;;4952891;28;20421;-76
2022/11/28 01:33:50;;;;;;;16.73;12.05;;;6.10;99.90;;;;;;4953632;28;20406;-76
2022/11/28 01:36:17;;;;;;;18.73;13.27;;;6.20;99.90;;;;;;4936479;29;20937;-76
2022/11/28 01:38:43;;;;;;;17.90;12.40;;;6.00;99.90;;;;;;4952640;29;20777;-76
2022/11/28 01:41:09;;;;;;;18.20;12.80;;;6.30;99.90;;;;;;4953359;28;20410;-76
2022/11/28 01:43:36;;;;;;;18.20;12.87;;;6.40;99.90;;;;;;4953161;29;20429;-75
2022/11/28 01:46:03;;;;;;;15.27;11.85;;;6.10;99.90;;;;;;4918332;29;20414;-76
2022/11/28 01:48:36;;;;;;;16.05;13.23;;;6.20;99.90;;;;;;4949512;29;20414;-75
2022/11/28 01:51:05;;;;;;;20.02;13.90;;;6.00;99.90;;;;;;4949823;29;20466;-76
2022/11/28 01:53:35;;;;;;;17.83;13.73;;;6.10;99.90;;;;;;4948884;29;20409;-78
2022/11/28 01:56:30;;;;;;;21.35;14.95;;;6.30;99.90;;;;;;4950257;29;20422;-76
2022/11/28 01:59:00;;;;;;;17.83;14.05;;;6.40;99.90;;;;;;4930940;29;20451;-76
2022/11/28 02:01:26;;;;;;;18.33;14.05;;;6.30;99.90;;;;;;4929080;29;21003;-75
2022/11/28 02:03:53;;;;;;;22.05;14.52;;;6.40;99.90;;;;;;4944287;29;20473;-75
2022/11/28 02:06:22;;;;;;;19.17;15.63;;;6.10;99.90;;;;;;4949451;29;20421;-77
2022/11/28 02:08:52;;;;;;;24.65;15.93;;;6.40;99.90;;;;;;4948604;29;20434;-77
2022/11/28 02:11:38;;;;;;;20.05;15.60;;;6.50;99.90;;;;;;4949529;29;20417;-79
2022/11/28 02:14:37;;;;;;;17.92;14.95;;;6.20;99.90;;;;;;4932740;29;20877;-76
2022/11/28 02:17:02;;;;;;;21.00;15.43;;;6.50;99.90;;;;;;4949561;29;20425;-76
2022/11/28 02:19:34;;;;;;;18.57;14.53;;;6.60;99.90;;;;;;4949253;29;20451;-77
2022/11/28 02:22:18;;;;;;;16.92;13.73;;;6.60;99.90;;;;;;4949661;29;20419;-76
2022/11/28 02:24:50;;;;;;;19.63;15.48;;;6.60;99.90;;;;;;4933156;29;20422;-77
2022/11/28 02:27:43;;;;;;;19.80;15.07;;;6.30;99.90;;;;;;4949692;29;20430;-77
2022/11/28 02:30:14;;;;;;;21.83;15.90;;;6.60;99.90;;;;;;4931766;29;20446;-77
2022/11/28 02:32:51;;;;;;;17.33;15.45;;;6.50;99.90;;;;;;4949415;29;20414;-76
2022/11/28 02:35:41;;;;;;;23.10;16.92;;;6.60;99.90;;;;;;4932690;29;20799;-76
2022/11/28 02:38:44;;;;;;;21.42;16.77;;;6.30;99.90;;;;;;4948623;29;20769;-78
2022/11/28 02:41:40;;;;;;;20.02;15.88;;;6.30;99.90;;;;;;4949209;29;20416;-76
2022/11/28 02:44:35;;;;;;;21.13;17.00;;;6.50;99.90;;;;;;4948952;29;20514;-77
2022/11/28 02:47:30;;;;;;;21.23;16.83;;;6.70;99.90;;;;;;4948757;29;20536;-76
2022/11/28 02:50:08;;;;;;;19.75;17.00;;;6.80;99.90;;;;;;4947871;29;20489;-78
2022/11/28 02:52:47;;;;;;;19.67;17.33;;;6.80;99.90;;;;;;4947918;29;20540;-77
2022/11/28 02:55:15;;;;;;;20.08;16.02;;;6.50;99.90;;;;;;4949442;29;20767;-76
2022/11/28 02:57:52;;;;;;;22.15;18.08;;;6.50;99.90;;;;;;4948398;28;20418;-76
2022/11/28 03:00:30;;;;;;;26.13;18.65;;;6.70;99.90;;;;;;4948380;29;20432;-76
2022/11/28 03:03:04;;;;;;;20.02;16.85;;;6.50;99.90;;;;;;4948432;29;20426;-75
2022/11/28 03:05:48;;;;;;;20.80;17.25;;;6.40;99.90;;;;;;4948351;29;20405;-76
2022/11/28 03:08:37;;;;;;;23.73;17.25;;;6.80;99.90;;;;;;4946813;29;20513;-76
2022/11/28 03:11:09;;;;;;;23.52;17.45;;;6.60;99.90;;;;;;4948646;29;20763;-76
2022/11/28 03:13:35;;;;;;;21.35;17.17;;;6.80;99.90;;;;;;4948019;29;20409;-77
2022/11/28 03:16:16;;;;;;;26.08;19.13;;;6.40;99.90;;;;;;4947590;29;20864;-75
2022/11/28 03:19:05;;;;;;;22.88;18.05;;;6.80;99.90;;;;;;4947997;29;20398;-77
2022/11/28 03:21:49;;;;;;;24.55;17.58;;;6.60;99.90;;;;;;4948061;29;20975;-76
2022/11/28 03:24:43;;;;;;;25.77;18.98;;;6.50;99.90;;;;;;4930356;29;20561;-78
2022/11/28 03:27:23;;;;;;;26.05;19.38;;;6.70;99.90;;;;;;4930842;29;20810;-76
2022/11/28 03:29:55;;;;;;;20.10;16.75;;;6.90;99.90;;;;;;4947911;29;20528;-76
2022/11/28 03:32:30;;;;;;;21.02;17.38;;;6.60;99.90;;;;;;4947220;29;20410;-77
2022/11/28 03:35:03;;;;;;;21.97;17.63;;;6.70;99.90;;;;;;4930676;29;20770;-76
2022/11/28 03:37:34;;;;;;;22.30;17.90;;;6.60;99.90;;;;;;4947202;29;20406;-77
2022/11/28 03:40:06;;;;;;;20.50;16.80;;;6.80;99.90;;;;;;4948157;29;20417;-76
2022/11/28 03:42:38;;;;;;;21.13;17.00;;;7.00;99.90;;;;;;4947664;29;20412;-75
2022/11/28 03:45:09;;;;;;;22.37;16.70;;;6.80;99.90;;;;;;4948070;29;20493;-75
2022/11/28 03:47:40;;;;;;;22.03;17.60;;;6.90;99.90;;;;;;4946792;29;20508;-76
2022/11/28 03:50:12;;;;;;;24.55;18.80;;;6.80;99.90;;;;;;4947751;29;20444;-75
2022/11/28 03:52:49;;;;;;;19.00;15.82;;;6.70;99.90;;;;;;4946886;29;20453;-78
2022/11/28 03:55:24;;;;;;;19.10;16.02;;;7.00;99.90;;;;;;4930680;29;20425;-76
2022/11/28 03:58:10;;;;;;;21.03;17.00;;;6.80;99.90;;;;;;4947898;29;20425;-77
2022/11/28 04:00:45;;;;;;;20.70;16.02;;;6.80;99.90;;;;;;4929977;29;20453;-76
2022/11/28 04:03:22;;;;;;;22.63;16.73;;;6.80;99.90;;;;;;4947403;28;20497;-75
2022/11/28 04:06:20;;;;;;;20.85;16.90;;;7.00;99.90;;;;;;4947914;29;20765;-78
2022/11/28 04:09:01;;;;;;;19.33;16.35;;;6.90;99.90;;;;;;4946692;28;20444;-76
2022/11/28 04:11:40;;;;;;;22.13;15.93;;;7.00;99.90;;;;;;4946838;29;20766;-76
2022/11/28 04:14:19;;;;;;;19.95;15.85;;;7.20;99.90;;;;;;4947575;29;20410;-76
2022/11/28 04:17:01;;;;;;;19.75;16.23;;;7.20;99.90;;;;;;4947625;29;20480;-75
2022/11/28 04:19:34;;;;;;;19.88;16.33;;;7.20;99.90;;;;;;4947036;29;20686;-76
2022/11/28 04:22:13;;;;;;;19.63;16.55;;;7.10;99.90;;;;;;4946670;29;20409;-75
2022/11/28 04:24:44;;;;;;;17.87;15.50;;;7.20;99.90;;;;;;4929765;29;20512;-77
2022/11/28 04:27:16;;;;;;;17.92;15.90;;;7.10;99.90;;;;;;4930045;29;21060;-75
2022/11/28 04:29:47;;;;;;;23.60;16.40;;;7.10;99.90;;;;;;4947147;29;20456;-76
2022/11/28 04:32:14;;;;;;;18.73;15.18;;;7.30;99.90;;;;;;4930833;29;20414;-77
2022/11/28 04:34:43;;;;;;;20.13;15.55;;;7.10;99.90;;;;;;4946890;29;20441;-76
2022/11/28 04:37:13;;;;;;;17.23;14.57;;;7.30;99.90;;;;;;4946353;29;20417;-76
2022/11/28 04:39:42;;;;;;;18.98;15.15;;;7.40;99.90;;;;;;4947073;29;20556;-76
2022/11/28 04:42:13;;;;;;;19.80;15.45;;;7.40;99.90;;;;;;4947495;29;20418;-76
2022/11/28 04:45:02;;;;;;;17.35;13.90;;;7.40;99.90;;;;;;4947260;29;20466;-79
2022/11/28 04:47:28;;;;;;;15.77;14.07;;;7.20;99.90;;;;;;4947156;29;20433;-76
2022/11/28 04:49:54;;;;;;;16.58;13.93;;;7.30;99.90;;;;;;4947130;29;20472;-75
2022/11/28 04:52:55;;;;;;;14.98;12.98;;;7.20;99.90;;;;;;4946380;29;20437;-76
2022/11/28 04:55:28;;;;;;;15.03;13.43;;;7.50;99.90;;;;;;4946831;29;20424;-76
2022/11/28 04:58:09;;;;;;;17.48;13.90;;;7.40;99.90;;;;;;4947754;29;20456;-77
2022/11/28 05:00:36;;;;;;;16.55;13.25;;;7.20;99.90;;;;;;4946937;29;20424;-76
2022/11/28 05:03:04;;;;;;;15.97;14.17;;;7.20;99.90;;;;;;4946838;29;20845;-77
2022/11/28 05:05:29;;;;;;;19.67;15.77;;;7.20;99.90;;;;;;4946442;29;20463;-77
2022/11/28 05:07:58;;;;;;;17.87;13.47;;;7.20;99.90;;;;;;4928972;29;20445;-76
2022/11/28 05:10:24;;;;;;;14.73;13.18;;;7.40;99.90;;;;;;4946485;29;20442;-75
2022/11/28 05:12:49;;;;;;;16.83;13.25;;;7.50;99.90;;;;;;4946848;29;20470;-75
2022/11/28 05:15:17;;;;;;;16.98;13.85;;;7.30;99.90;;;;;;4929490;29;20422;-76
2022/11/28 05:17:46;;;;;;;15.93;13.67;;;7.30;99.90;;;;;;4927762;29;20443;-76
2022/11/28 05:20:12;;;;;;;18.33;14.70;;;7.30;99.90;;;;;;4935681;28;20440;-76
2022/11/28 05:22:38;;;;;;;16.77;14.02;;;7.40;99.90;;;;;;4949245;29;20468;-75
2022/11/28 05:25:04;;;;;;;16.77;13.83;;;7.50;99.90;;;;;;4933689;29;20825;-77
2022/11/28 05:27:30;;;;;;;20.85;15.80;;;7.60;99.90;;;;;;4950580;29;20468;-75
2022/11/28 05:29:55;;;;;;;16.20;13.77;;;7.40;99.90;;;;;;4950446;29;20485;-76
2022/11/28 05:32:21;;;;;;;16.77;14.13;;;7.70;99.90;;;;;;4950290;29;20546;-77
2022/11/28 05:34:46;;;;;;;16.90;13.40;;;7.60;99.90;;;;;;4950936;29;20417;-76
2022/11/28 05:37:12;;;;;;;15.60;12.77;;;7.70;99.90;;;;;;4949966;29;20615;-76
2022/11/28 05:39:38;;;;;;;17.17;13.98;;;7.30;99.90;;;;;;4933068;29;20433;-75
2022/11/28 05:42:04;;;;;;;15.85;12.13;;;7.40;99.90;;;;;;4933737;29;20425;-76
2022/11/28 05:44:29;;;;;;;16.48;12.85;;;7.40;99.90;;;;;;4950171;29;20422;-75
2022/11/28 05:46:55;;;;;;;15.25;12.45;;;7.60;99.90;;;;;;4933099;29;20623;-76
2022/11/28 05:49:20;;;;;;;16.67;13.43;;;7.40;99.90;;;;;;4949581;29;20421;-78
2022/11/28 05:51:47;;;;;;;15.07;13.45;;;7.70;99.90;;;;;;4932291;29;20481;-76
2022/11/28 05:54:13;;;;;;;17.53;13.70;;;7.60;99.90;;;;;;4932968;29;20913;-76
2022/11/28 05:56:38;;;;;;;13.70;12.18;;;7.60;99.90;;;;;;4949235;29;20505;-77
2022/11/28 05:59:04;;;;;;;13.45;11.40;;;7.40;99.90;;;;;;4950304;29;20565;-76
2022/11/28 06:01:30;;;;;;;15.60;12.60;;;7.70;99.90;;;;;;4949560;29;20460;-75
2022/11/28 06:03:59;;;;;;;13.30;11.40;;;7.50;99.90;;;;;;4949372;28;20801;-77
2022/11/28 06:06:28;;;;;;;14.23;11.48;;;7.70;99.90;;;;;;4949112;29;20497;-76
2022/11/28 06:08:54;;;;;;;13.38;11.18;;;7.50;99.90;;;;;;4949041;29;20520;-75
2022/11/28 06:11:21;;;;;;;13.90;11.73;;;7.50;99.90;;;;;;4949468;29;20429;-77
2022/11/28 06:13:48;;;;;;;13.43;11.27;;;7.70;99.90;;;;;;4950098;29;20765;-76
2022/11/28 06:16:16;;;;;;;13.25;10.77;;;7.50;99.90;;;;;;4949802;29;20437;-77
2022/11/28 06:18:42;;;;;;;15.25;11.82;;;7.80;99.90;;;;;;4949720;29;20410;-76
2022/11/28 06:21:10;;;;;;;13.47;10.53;;;7.80;99.90;;;;;;4949990;29;20421;-77
2022/11/28 06:23:37;;;;;;;12.73;11.05;;;7.60;99.90;;;;;;4949178;29;20464;-76
2022/11/28 06:26:13;;;;;;;14.75;11.38;;;7.70;99.90;;;;;;4949815;29;20439;-77
2022/11/28 06:28:39;;;;;;;13.38;10.68;;;7.80;99.90;;;;;;4949089;29;20438;-76
2022/11/28 06:31:21;;;;;;;14.05;11.07;;;7.60;99.90;;;;;;4949721;29;20417;-76
2022/11/28 06:33:48;;;;;;;16.20;12.15;;;7.50;99.90;;;;;;4949501;28;20410;-79
2022/11/28 06:36:15;;;;;;;15.38;12.02;;;7.90;99.90;;;;;;4950320;29;20417;-76
2022/11/28 06:38:40;;;;;;;14.88;11.82;;;7.80;99.90;;;;;;4930998;29;20457;-77
2022/11/28 06:41:09;;;;;;;17.90;11.82;;;7.80;99.90;;;;;;4949604;29;20836;-76
2022/11/28 06:43:35;;;;;;;18.33;12.75;;;7.80;99.90;;;;;;4949211;29;20420;-75
2022/11/28 06:46:00;;;;;;;17.50;13.20;;;7.70;99.90;;;;;;4948525;29;20426;-76
2022/11/28 06:48:26;;;;;;;15.65;11.70;;;7.90;99.90;;;;;;4949033;29;20422;-75
2022/11/28 06:50:53;;;;;;;18.00;13.65;;;8.00;99.90;;;;;;4949131;29;20425;-77
2022/11/28 06:53:18;;;;;;;14.43;11.77;;;7.80;99.90;;;;;;4947932;29;20406;-76
2022/11/28 06:55:45;;;;;;;16.23;11.27;;;7.70;99.90;;;;;;4949453;29;20535;-76
2022/11/28 06:58:11;;;;;;;13.23;10.75;;;8.00;99.90;;;;;;4948763;29;20420;-75
2022/11/28 07:00:36;;;;;;;12.50;10.07;;;7.90;99.90;;;;;;4931383;29;20426;-76
2022/11/28 07:03:02;;;;;;;15.23;11.18;;;7.70;99.90;;;;;;4949160;29;20445;-76
2022/11/28 07:05:29;;;;;;;12.50;9.60;;;7.70;99.90;;;;;;4931354;29;20782;-76
2022/11/28 07:07:56;;;;;;;11.80;10.10;;;7.70;99.90;;;;;;4947979;29;20878;-76
2022/11/28 07:10:22;;;;;;;12.57;10.15;;;7.80;99.90;;;;;;4948699;29;20434;-77
2022/11/28 07:12:55;;;;;;;13.00;9.85;;;7.90;99.90;;;;;;4931494;29;20461;-77
2022/11/28 07:15:21;;;;;;;16.40;10.63;;;7.80;99.90;;;;;;4947957;29;20555;-76
2022/11/28 07:17:47;;;;;;;12.77;9.60;;;7.70;99.90;;;;;;4949116;29;20773;-77
2022/11/28 07:20:13;;;;;;;12.57;9.80;;;8.00;99.90;;;;;;4948655;29;20410;-76
2022/11/28 07:22:39;;;;;;;12.02;9.77;;;8.00;99.90;;;;;;4947249;29;20776;-77
2022/11/28 07:25:05;;;;;;;11.73;9.63;;;8.00;99.90;;;;;;4948455;29;20418;-76
2022/11/28 07:27:30;;;;;;;13.18;9.98;;;7.80;99.90;;;;;;4948034;29;20418;-76
2022/11/28 07:29:56;;;;;;;12.67;9.80;;;7.80;99.90;;;;;;4930965;29;20464;-75
2022/11/28 07:32:21;;;;;;;12.77;9.90;;;8.00;99.90;;;;;;4948056;29;20516;-77
2022/11/28 07:34:47;;;;;;;16.40;10.75;;;7.70;99.90;;;;;;4948455;29;20506;-76
2022/11/28 07:37:14;;;;;;;15.98;11.05;;;7.90;99.90;;;;;;4947484;29;20409;-77
2022/11/28 07:39:41;;;;;;;13.47;10.30;;;8.00;99.90;;;;;;4946796;29;20846;-79
2022/11/28 07:42:06;;;;;;;14.75;10.75;;;8.00;99.90;;;;;;4948328;29;20501;-77
2022/11/28 07:44:32;;;;;;;17.20;11.30;;;8.00;99.90;;;;;;4947439;28;20446;-76
2022/11/28 07:46:58;;;;;;;14.60;10.48;;;8.10;99.90;;;;;;4947312;29;20975;-77
2022/11/28 07:49:23;;;;;;;13.20;10.52;;;7.80;99.90;;;;;;4947681;29;20500;-76
2022/11/28 07:51:49;;;;;;;11.80;9.75;;;7.80;99.90;;;;;;4947047;29;20923;-76
2022/11/28 07:54:15;;;;;;;18.17;10.77;;;8.00;99.90;;;;;;4948262;29;20394;-76
2022/11/28 07:56:40;;;;;;;14.40;10.30;;;7.90;99.90;;;;;;4930681;29;21027;-77
2022/11/28 07:59:06;;;;;;;13.88;10.13;;;8.00;99.90;;;;;;4930802;29;20417;-76
2022/11/28 08:01:36;;;;;;;14.07;10.65;;;8.00;99.90;;;;;;4930729;29;20417;-76
2022/11/28 08:04:05;;;;;;;11.13;8.80;;;7.90;99.90;;;;;;4947753;29;20410;-77
2022/11/28 08:06:34;;;;;;;12.40;8.75;;;7.90;99.90;;;;;;4946737;29;20476;-77
2022/11/28 08:09:00;;;;;;;13.07;9.50;;;7.80;99.90;;;;;;4947346;29;20504;-77
2022/11/28 08:11:28;;;;;;;11.85;10.02;;;8.10;99.90;;;;;;4914188;29;20418;-76
2022/11/28 08:13:55;;;;;;;10.73;8.60;;;8.00;99.90;;;;;;4947987;29;20441;-76
2022/11/28 08:16:22;;;;;;;10.70;8.95;;;7.70;99.90;;;;;;4947034;29;20425;-76
2022/11/28 08:18:49;;;;;;;13.85;10.20;;;8.10;99.90;;;;;;4930489;29;20464;-78
2022/11/28 08:21:27;;;;;;;10.65;8.88;;;7.80;99.90;;;;;;4947737;29;20812;-75
2022/11/28 08:23:54;;;;;;;9.75;7.88;;;7.90;99.90;;;;;;4947051;29;20410;-76
2022/11/28 08:26:22;;;;;;;8.60;7.55;;;7.70;99.90;;;;;;4947403;29;20422;-76
2022/11/28 08:28:49;;;;;;;10.50;8.07;;;7.90;99.90;;;;;;4947489;29;20417;-78
2022/11/28 08:31:21;;;;;;;9.03;7.50;;;8.10;99.90;;;;;;4930277;29;20575;-77
2022/11/28 08:33:48;;;;;;;8.93;7.05;;;7.80;99.90;;;;;;4930255;29;20426;-77
2022/11/28 08:36:15;;;;;;;9.93;7.53;;;8.10;99.90;;;;;;4946852;29;20773;-78
2022/11/28 08:38:42;;;;;;;7.70;6.30;;;7.80;99.90;;;;;;4929894;29;20430;-78
2022/11/28 08:41:14;;;;;;;9.10;6.85;;;8.20;99.90;;;;;;4947692;29;20476;-76
2022/11/28 08:43:40;;;;;;;10.30;7.47;;;8.10;99.90;;;;;;4946870;29;20437;-76
2022/11/28 08:46:09;;;;;;;8.05;6.30;;;7.90;99.90;;;;;;4947402;29;20452;-76
2022/11/28 08:48:36;;;;;;;8.38;6.55;;;8.00;99.90;;;;;;4929687;29;20421;-76
2022/11/28 08:51:02;;;;;;;8.53;6.60;;;8.20;99.90;;;;;;4946760;29;20824;-76
2022/11/28 08:53:27;;;;;;;9.02;6.43;;;8.00;99.90;;;;;;4929174;29;20508;-75
2022/11/28 08:55:53;;;;;;;10.83;7.53;;;8.00;99.90;;;;;;4948034;28;20647;-75
2022/11/28 08:58:18;;;;;;;9.33;6.87;;;8.10;99.90;;;;;;4950022;29;20410;-75
2022/11/28 09:00:45;;;;;;;9.73;7.80;;;8.20;99.90;;;;;;4950327;29;20410;-76
2022/11/28 09:03:16;;;;;;;10.10;8.98;;;8.10;99.90;;;;;;4950226;28;20434;-76
2022/11/28 09:05:46;;;;;;;10.80;8.03;;;8.00;99.90;;;;;;4932593;29;20482;-76
2022/11/28 09:08:13;;;;;;;12.77;8.98;;;8.30;99.90;;;;;;4949122;29;20641;-75
2022/11/28 09:10:40;;;;;;;13.52;9.88;;;8.10;99.90;;;;;;4932824;29;20453;-77
2022/11/28 09:13:07;;;;;;;14.77;9.93;;;8.30;99.90;;;;;;4948714;29;20424;-76
2022/11/28 09:15:33;;;;;;;14.23;9.50;;;8.30;99.90;;;;;;4949905;29;20428;-75
2022/11/28 09:17:59;;;;;;;13.60;10.63;;;8.30;99.90;;;;;;4949944;29;20599;-75
2022/11/28 09:20:24;;;;;;;16.15;10.95;;;8.10;99.90;;;;;;4932949;29;20414;-76
2022/11/28 09:22:50;;;;;;;14.35;10.30;;;8.40;99.90;;;;;;4949683;29;20422;-76
2022/11/28 09:25:16;;;;;;;15.48;11.27;;;8.10;99.90;;;;;;4950279;29;20430;-77
2022/11/28 09:27:42;;;;;;;18.10;11.93;;;8.10;99.90;;;;;;4949683;29;20402;-76
2022/11/28 09:30:08;;;;;;;16.40;11.70;;;8.20;99.90;;;;;;4932857;29;20482;-76
2022/11/28 09:32:34;;;;;;;18.02;11.98;;;8.20;99.90;;;;;;4949676;29;20767;-76
2022/11/28 09:35:00;;;;;;;18.35;12.45;;;8.40;99.90;;;;;;4950698;29;20668;-76
2022/11/28 09:37:29;;;;;;;22.17;13.67;;;8.20;99.90;;;;;;4931228;29;20414;-76
2022/11/28 09:39:55;;;;;;;18.15;12.07;;;8.30;99.90;;;;;;4932570;29;20422;-76
2022/11/28 09:42:32;;;;;;;21.23;13.60;;;8.50;99.90;;;;;;4949879;29;20756;-76
2022/11/28 09:45:02;;;;;;;23.60;13.38;;;8.50;99.90;;;;;;4950102;29;20422;-76
2022/11/28 09:47:30;;;;;;;17.23;12.55;;;8.20;99.90;;;;;;4949260;29;20405;-75
2022/11/28 09:49:59;;;;;;;19.27;12.98;;;8.40;99.90;;;;;;4931988;29;20452;-76
2022/11/28 09:52:35;;;;;;;18.58;13.60;;;8.40;99.90;;;;;;4931003;29;20421;-75
2022/11/28 09:55:01;;;;;;;17.88;13.27;;;8.50;99.90;;;;;;4949715;29;20422;-75
2022/11/28 09:57:38;;;;;;;17.57;13.00;;;8.40;99.90;;;;;;4932488;29;20435;-76
2022/11/28 10:00:05;;;;;;;19.40;13.57;;;8.50;99.90;;;;;;4932905;29;20742;-78
2022/11/28 10:02:37;;;;;;;18.95;12.70;;;8.60;99.90;;;;;;4900971;29;20809;-77
2022/11/28 10:05:25;;;;;;;17.88;13.40;;;8.30;99.90;;;;;;4932383;29;20461;-76
2022/11/28 10:08:01;;;;;;;19.90;13.67;;;8.50;99.90;;;;;;4930372;29;20587;-75
2022/11/28 10:10:47;;;;;;;22.98;14.15;;;8.50;99.90;;;;;;4931735;29;20449;-75
2022/11/28 10:13:26;;;;;;;20.90;14.02;;;8.30;99.90;;;;;;4932961;29;20422;-76
2022/11/28 10:16:01;;;;;;;16.98;12.63;;;8.50;99.90;;;;;;4932482;29;20840;-76
2022/11/28 10:18:58;;;;;;;16.93;12.97;;;8.20;99.90;;;;;;4949389;29;20433;-76
2022/11/28 10:21:35;;;;;;;19.05;12.43;;;8.70;99.90;;;;;;4946771;29;20801;-77
2022/11/28 10:24:04;;;;;;;14.93;12.10;;;8.40;99.90;;;;;;4932577;29;20464;-75
2022/11/28 10:26:34;;;;;;;15.85;11.55;;;8.60;99.90;;;;;;4949067;29;20413;-76
2022/11/28 10:29:06;;;;;;;17.47;12.50;;;8.60;99.90;;;;;;4914402;29;20458;-76
2022/11/28 10:31:40;;;;;;;13.25;10.88;;;8.70;99.90;;;;;;4931689;29;20427;-75
2022/11/28 10:34:32;;;;;;;14.75;11.55;;;8.70;99.90;;;;;;4948365;29;20417;-76
2022/11/28 10:37:24;;;;;;;18.92;12.98;;;8.70;99.90;;;;;;4946842;29;20434;-76
2022/11/28 10:39:51;;;;;;;16.83;11.50;;;8.60;99.90;;;;;;4948456;29;20489;-77
2022/11/28 10:42:22;;;;;;;15.75;10.90;;;8.70;99.90;;;;;;4948927;29;20421;-75
2022/11/28 10:45:20;;;;;;;12.93;10.65;;;8.70;99.90;;;;;;4948598;29;20429;-79
2022/11/28 10:48:18;;;;;;;16.13;10.95;;;8.60;99.90;;;;;;4897601;29;21054;-76
2022/11/28 10:50:44;;;;;;;16.17;10.87;;;8.70;99.90;;;;;;4929475;29;20432;-76
2022/11/28 10:53:18;;;;;;;11.57;9.17;;;8.70;99.90;;;;;;4927914;29;20471;-76
2022/11/28 10:56:07;;;;;;;15.18;10.93;;;8.80;99.90;;;;;;4929831;29;20411;-76
2022/11/28 10:58:45;;;;;;;13.05;9.88;;;8.90;99.90;;;;;;4912865;29;20423;-76
2022/11/28 11:01:11;;;;;;;16.25;10.48;;;8.80;99.90;;;;;;4912143;29;20427;-76
2022/11/28 11:03:39;;;;;;;13.02;8.82;;;8.70;99.90;;;;;;4935694;29;20415;-77
2022/11/28 11:06:05;;;;;;;16.08;11.25;;;9.00;99.90;;;;;;4928748;29;20458;-78
2022/11/28 11:08:39;;;;;;;11.68;9.45;;;8.90;99.90;;;;;;4929033;29;20406;-77
2022/11/28 11:11:06;;;;;;;10.38;9.13;;;8.80;99.90;;;;;;4929887;29;20435;-76
2022/11/28 11:13:34;;;;;;;11.55;9.63;;;8.80;99.90;;;;;;4945573;29;20504;-77
2022/11/28 11:16:06;;;;;;;12.23;9.63;;;8.90;99.90;;;;;;4949000;28;20414;-76
2022/11/28 11:18:36;;;;;;;11.43;8.95;;;8.80;99.90;;;;;;4946704;28;20769;-77
2022/11/28 11:21:11;;;;;;;10.43;7.95;;;9.00;99.90;;;;;;4946361;29;20418;-79
2022/11/28 11:23:36;;;;;;;12.18;8.85;;;9.00;99.90;;;;;;4948367;29;20414;-76
2022/11/28 11:26:04;;;;;;;10.43;8.77;;;8.90;99.90;;;;;;4946663;29;20459;-76
2022/11/28 11:28:42;;;;;;;8.00;7.20;;;8.80;99.90;;;;;;4947744;29;20418;-77
2022/11/28 11:31:41;;;;;;;8.00;7.20;;;9.00;99.90;;;;;;4948282;29;20472;-78
2022/11/28 11:34:15;;;;;;;9.05;7.20;;;8.90;99.90;;;;;;4943585;28;20890;-77
2022/11/28 11:36:40;;;;;;;8.13;7.23;;;9.00;99.90;;;;;;4945654;29;20519;-76
2022/11/28 11:39:12;;;;;;;9.17;7.83;;;8.90;99.90;;;;;;4946632;29;20953;-76
2022/11/28 11:41:48;;;;;;;9.18;7.53;;;8.90;99.90;;;;;;4946439;29;20475;-77
2022/11/28 11:44:14;;;;;;;9.93;7.47;;;9.00;99.90;;;;;;4946596;29;20920;-77
2022/11/28 11:46:53;;;;;;;11.38;8.05;;;9.10;99.90;;;;;;4948069;28;20429;-77
2022/11/28 11:49:40;;;;;;;10.80;7.07;;;9.10;99.90;;;;;;4946513;29;20504;-77
2022/11/28 11:52:11;;;;;;;7.63;6.82;;;9.10;99.90;;;;;;4945042;29;20877;-76
2022/11/28 11:55:01;;;;;;;8.50;7.60;;;9.10;99.90;;;;;;4947520;29;20864;-76
2022/11/28 11:57:35;;;;;;;11.90;6.97;;;9.10;99.90;;;;;;4945331;29;20428;-75
2022/11/28 12:00:01;;;;;;;9.80;7.40;;;9.00;99.90;;;;;;4947746;28;20406;-77
2022/11/28 12:02:34;;;;;;;8.70;7.23;;;9.00;99.90;;;;;;4946290;28;20947;-76
2022/11/28 12:05:22;;;;;;;9.55;7.22;;;9.00;99.90;;;;;;4947770;29;20413;-76
2022/11/28 12:07:52;;;;;;;8.65;7.50;;;9.00;99.90;;;;;;4946458;29;20416;-77
2022/11/28 12:10:22;;;;;;;8.55;7.30;;;9.20;99.90;;;;;;4947349;29;20861;-78
2022/11/28 12:12:48;;;;;;;10.43;7.28;;;9.20;99.90;;;;;;4914270;29;20457;-77
2022/11/28 12:15:20;;;;;;;8.57;7.63;;;9.10;99.90;;;;;;4947901;29;20418;-77
2022/11/28 12:17:52;;;;;;;9.57;8.40;;;9.30;99.90;;;;;;4930353;29;20421;-77
2022/11/28 12:20:39;;;;;;;10.65;8.70;;;9.00;99.90;;;;;;4929845;29;20457;-77
2022/11/28 12:23:26;;;;;;;9.57;8.03;;;9.10;99.90;;;;;;4913917;29;20414;-77
2022/11/28 12:26:14;;;;;;;11.07;9.02;;;9.00;99.90;;;;;;4914014;29;20481;-76
2022/11/28 12:28:51;;;;;;;11.93;9.40;;;9.20;99.90;;;;;;4946992;29;20861;-78
2022/11/28 12:31:31;;;;;;;11.02;9.52;;;9.10;99.90;;;;;;4929946;29;20762;-78
2022/11/28 12:34:25;;;;;;;12.23;9.05;;;9.30;99.90;;;;;;4914542;29;20445;-76
2022/11/28 12:37:09;;;;;;;9.90;8.60;;;9.20;99.90;;;;;;4946556;29;20500;-75
2022/11/28 12:39:56;;;;;;;15.93;10.87;;;9.00;99.90;;;;;;4929662;29;20436;-76
2022/11/28 12:42:43;;;;;;;17.97;10.60;;;9.20;99.90;;;;;;4929307;29;20774;-77
2022/11/28 12:45:38;;;;;;;15.25;11.05;;;9.20;99.90;;;;;;4947679;29;20670;-77
2022/11/28 12:48:26;;;;;;;15.30;11.68;;;9.10;99.90;;;;;;4929512;29;20498;-76
2022/11/28 12:51:10;;;;;;;16.50;12.40;;;9.10;99.90;;;;;;4928675;29;20585;-76
2022/11/28 12:54:04;;;;;;;15.75;12.85;;;9.10;99.90;;;;;;4946741;29;20469;-76
2022/11/28 12:56:58;;;;;;;20.17;14.02;;;9.10;99.90;;;;;;4946384;29;20493;-77
2022/11/28 12:59:42;;;;;;;19.50;13.15;;;9.10;99.90;;;;;;4929846;29;20691;-78
2022/11/28 13:02:42;;;;;;;17.90;12.85;;;9.10;99.90;;;;;;4914091;29;20425;-76
2022/11/28 13:05:38;;;;;;;20.15;13.07;;;9.10;99.90;;;;;;4947060;29;20465;-76